Time;durP1;ratioP1;P1;durP2;ratioP2;P2;SDS_P1;SDS_P2;PMS_P1;PMS_P2;Temp;Humidity;BMP_temperature;BMP_pressure;BME280_temperature;BME280_humidity;BME280_pressure;Samples;Min_cycle;Max_cycle;Signal;HPM_P1;HPM_P2
2022/02/01 00:02:52;;;;;;;15.27;3.55;;;;;;;;;;4996675;28;20057;-71
2022/02/01 00:05:28;;;;;;;16.95;3.80;;;;;;;;;;4996466;28;20046;-73
2022/02/01 00:08:14;;;;;;;16.80;3.33;;;;;;;;;;4995354;28;20051;-71
2022/02/01 00:11:16;;;;;;;20.33;3.30;;;;;;;;;;4995334;28;20048;-73
2022/02/01 00:19:19;;;;;;;19.92;3.67;;;;;;;;;;4995043;28;20493;-74
2022/02/01 00:35:46;;;;;;;14.00;2.80;;;;;;;;;;4996240;28;20035;-71
2022/02/01 00:38:25;;;;;;;11.52;2.78;;;;;;;;;;4996019;28;20125;-71
2022/02/01 00:41:03;;;;;;;13.25;2.72;;;;;;;;;;4996183;28;20038;-71
2022/02/01 00:43:32;;;;;;;11.10;3.03;;;;;;;;;;5010802;28;20043;-70
2022/02/01 00:46:02;;;;;;;9.52;3.15;;;;;;;;;;4994656;28;20046;-74
2022/02/01 00:48:30;;;;;;;17.13;2.92;;;;;;;;;;4977770;28;20046;-74
2022/02/01 00:50:58;;;;;;;11.57;2.72;;;;;;;;;;4995782;28;20039;-71
2022/02/01 00:53:31;;;;;;;15.35;2.72;;;;;;;;;;4995157;28;20046;-74
2022/02/01 00:56:00;;;;;;;14.52;2.90;;;;;;;;;;4995538;28;20497;-70
2022/02/01 00:58:27;;;;;;;17.95;3.20;;;;;;;;;;4995543;28;20073;-74
2022/02/01 01:00:55;;;;;;;10.50;2.72;;;;;;;;;;4994436;28;20045;-74
2022/02/01 01:03:23;;;;;;;15.13;3.00;;;;;;;;;;4995672;28;20490;-74
2022/02/01 01:05:53;;;;;;;11.80;2.45;;;;;;;;;;4995230;28;20409;-71
2022/02/01 01:08:22;;;;;;;16.88;3.17;;;;;;;;;;5010450;28;20050;-71
2022/02/01 01:10:50;;;;;;;11.20;2.83;;;;;;;;;;4995706;28;20077;-70
2022/02/01 01:43:51;;;;;;;16.70;3.17;;;;;;;;;;4993660;28;20493;-71
2022/02/01 01:54:26;;;;;;;26.08;3.47;;;;;;;;;;4994667;28;20405;-72
2022/02/01 01:56:55;;;;;;;16.10;3.28;;;;;;;;;;4993402;28;20078;-71
2022/02/01 01:59:25;;;;;;;14.00;2.55;;;;;;;;;;4994702;28;20501;-72
2022/02/01 02:01:53;;;;;;;14.70;3.25;;;;;;;;;;4993820;28;20042;-72
2022/02/01 02:04:20;;;;;;;16.70;3.33;;;;;;;;;;4993671;28;20042;-76
2022/02/01 02:06:48;;;;;;;18.58;3.03;;;;;;;;;;4993028;28;20043;-75
2022/02/01 02:09:16;;;;;;;15.75;3.35;;;;;;;;;;4994427;28;20091;-76
2022/02/01 02:14:24;;;;;;;21.83;3.70;;;;;;;;;;4993014;28;20058;-72
2022/02/01 02:16:51;;;;;;;19.15;3.58;;;;;;;;;;4993575;28;20472;-75
2022/02/01 02:19:21;;;;;;;26.15;3.78;;;;;;;;;;4993148;28;20409;-75
2022/02/01 02:21:48;;;;;;;31.25;3.90;;;;;;;;;;4993091;28;20064;-72
2022/02/01 02:24:17;;;;;;;20.10;3.60;;;;;;;;;;4994776;28;20385;-71
2022/02/01 02:26:48;;;;;;;25.35;3.72;;;;;;;;;;4993503;28;20039;-75
2022/02/01 02:29:16;;;;;;;20.15;3.40;;;;;;;;;;4998974;28;20038;-71
2022/02/01 02:31:47;;;;;;;22.27;4.75;;;;;;;;;;5024805;28;20508;-71
2022/02/01 02:34:16;;;;;;;18.13;3.30;;;;;;;;;;5013687;28;20049;-75
2022/02/01 02:36:52;;;;;;;18.02;3.47;;;;;;;;;;5012664;28;20048;-75
2022/02/01 02:45:12;;;;;;;20.88;3.00;;;;;;;;;;5013578;28;20096;-75
2022/02/01 02:47:40;;;;;;;20.83;3.47;;;;;;;;;;5013187;28;20125;-75
2022/02/01 02:50:08;;;;;;;17.83;3.35;;;;;;;;;;5010746;28;20049;-75
2022/02/01 02:52:38;;;;;;;24.23;3.38;;;;;;;;;;5028643;28;20152;-75
2022/02/01 02:55:06;;;;;;;18.65;3.60;;;;;;;;;;5013007;28;20042;-71
2022/02/01 02:57:34;;;;;;;14.55;3.00;;;;;;;;;;5012513;28;20046;-73
2022/02/01 03:00:02;;;;;;;20.83;3.22;;;;;;;;;;5013609;28;20046;-75
2022/02/01 03:02:32;;;;;;;18.75;2.88;;;;;;;;;;5028640;28;20401;-75
2022/02/01 03:05:00;;;;;;;17.80;3.03;;;;;;;;;;5013858;28;20049;-75
2022/02/01 03:07:29;;;;;;;23.65;3.45;;;;;;;;;;5013025;28;20045;-75
2022/02/01 03:09:56;;;;;;;17.27;3.03;;;;;;;;;;5013423;28;20049;-71
2022/02/01 03:12:45;;;;;;;21.90;3.33;;;;;;;;;;5028182;28;20053;-75
2022/02/01 03:20:42;;;;;;;20.95;3.40;;;;;;;;;;5013363;28;20042;-75
2022/02/01 03:23:10;;;;;;;26.48;3.60;;;;;;;;;;5013384;28;20125;-75
2022/02/01 03:25:38;;;;;;;20.30;3.83;;;;;;;;;;5012002;28;20421;-71
2022/02/01 03:28:05;;;;;;;29.50;4.57;;;;;;;;;;5012665;28;20044;-71
2022/02/01 03:30:33;;;;;;;19.98;4.53;;;;;;;;;;5012668;28;20038;-75
2022/02/01 03:33:01;;;;;;;24.48;4.88;;;;;;;;;;5011589;28;20109;-71
2022/02/01 03:35:30;;;;;;;24.48;3.80;;;;;;;;;;5012672;28;20048;-75
2022/02/01 03:37:58;;;;;;;21.15;3.58;;;;;;;;;;5012857;28;20044;-75
2022/02/01 03:40:26;;;;;;;21.88;3.63;;;;;;;;;;5011433;28;20050;-75
2022/02/01 03:42:53;;;;;;;18.90;3.45;;;;;;;;;;5012655;28;20069;-71
2022/02/01 03:45:21;;;;;;;21.83;3.72;;;;;;;;;;5011613;28;20060;-71
2022/02/01 03:47:48;;;;;;;15.70;2.83;;;;;;;;;;5012710;28;20125;-75
2022/02/01 03:50:16;;;;;;;17.50;3.10;;;;;;;;;;5012847;28;20034;-75
2022/02/01 03:52:43;;;;;;;19.80;3.42;;;;;;;;;;5011403;28;20132;-71
2022/02/01 03:55:11;;;;;;;19.23;3.50;;;;;;;;;;5012056;28;20042;-75
2022/02/01 03:57:39;;;;;;;18.02;3.45;;;;;;;;;;5011615;28;20398;-71
2022/02/01 04:00:08;;;;;;;17.55;3.95;;;;;;;;;;5012785;28;20041;-71
2022/02/01 04:02:41;;;;;;;20.73;3.25;;;;;;;;;;5012279;28;20045;-71
2022/02/01 04:05:08;;;;;;;16.73;3.13;;;;;;;;;;5011577;28;20053;-71
2022/02/01 04:07:42;;;;;;;15.05;2.45;;;;;;;;;;5012438;28;20117;-71
2022/02/01 04:10:10;;;;;;;13.80;2.97;;;;;;;;;;5012591;28;20046;-75
2022/02/01 04:12:39;;;;;;;19.50;3.03;;;;;;;;;;5012900;28;20040;-75
2022/02/01 04:15:07;;;;;;;14.05;3.15;;;;;;;;;;5012798;28;20074;-75
2022/02/01 04:17:37;;;;;;;15.30;2.72;;;;;;;;;;5012416;28;20046;-75
2022/02/01 04:20:05;;;;;;;10.88;2.47;;;;;;;;;;5012595;28;20069;-71
2022/02/01 04:22:32;;;;;;;11.50;2.40;;;;;;;;;;5011209;28;20409;-74
2022/02/01 04:25:00;;;;;;;13.57;2.47;;;;;;;;;;5014413;28;20080;-71
2022/02/01 04:27:31;;;;;;;11.13;2.97;;;;;;;;;;5015956;28;20041;-71
2022/02/01 04:30:08;;;;;;;15.55;3.13;;;;;;;;;;5015407;28;20060;-71
2022/02/01 04:32:40;;;;;;;11.98;2.70;;;;;;;;;;5014912;28;20133;-71
2022/02/01 04:35:09;;;;;;;11.20;2.63;;;;;;;;;;5014748;28;20065;-75
2022/02/01 04:37:38;;;;;;;15.43;2.40;;;;;;;;;;5014173;28;20055;-72
2022/02/01 04:40:07;;;;;;;14.13;2.30;;;;;;;;;;5015800;28;20053;-75
2022/02/01 04:42:37;;;;;;;12.63;2.95;;;;;;;;;;5014318;28;20046;-71
2022/02/01 04:45:06;;;;;;;6.78;1.45;;;;;;;;;;5014636;28;20056;-71
2022/02/01 04:47:35;;;;;;;7.70;1.70;;;;;;;;;;5014909;28;20100;-71
2022/02/01 04:50:05;;;;;;;6.38;1.70;;;;;;;;;;5015594;28;20042;-71
2022/02/01 04:52:33;;;;;;;6.70;1.15;;;;;;;;;;5015652;28;20069;-71
2022/02/01 04:55:01;;;;;;;7.97;1.67;;;;;;;;;;5014124;28;20046;-71
2022/02/01 04:57:28;;;;;;;5.05;1.05;;;;;;;;;;5015620;28;20083;-71
2022/02/01 04:59:57;;;;;;;3.42;1.33;;;;;;;;;;5014791;28;20045;-75
2022/02/01 05:02:24;;;;;;;6.40;1.10;;;;;;;;;;5015643;28;20061;-71
2022/02/01 05:04:52;;;;;;;9.60;1.20;;;;;;;;;;5015642;28;20038;-75
2022/02/01 05:07:21;;;;;;;5.03;1.27;;;;;;;;;;5015013;28;20045;-75
2022/02/01 05:09:50;;;;;;;3.97;1.25;;;;;;;;;;5013863;28;20045;-71
2022/02/01 05:12:18;;;;;;;6.13;1.50;;;;;;;;;;5014993;28;20048;-71
2022/02/01 05:14:48;;;;;;;6.15;1.50;;;;;;;;;;5013951;28;20437;-75
2022/02/01 05:17:18;;;;;;;6.55;1.48;;;;;;;;;;5014127;28;20076;-75
2022/02/01 05:20:15;;;;;;;4.15;1.10;;;;;;;;;;5015206;28;20034;-75
2022/02/01 05:22:46;;;;;;;7.68;1.10;;;;;;;;;;5015487;28;20549;-75
2022/02/01 05:25:14;;;;;;;8.63;2.03;;;;;;;;;;5015527;28;20074;-71
2022/02/01 05:27:45;;;;;;;3.30;1.10;;;;;;;;;;5013187;28;20038;-71
2022/02/01 05:30:13;;;;;;;2.45;1.00;;;;;;;;;;5014242;28;20036;-75
2022/02/01 05:32:41;;;;;;;4.28;1.05;;;;;;;;;;5013388;28;20068;-75
2022/02/01 05:35:08;;;;;;;2.80;1.00;;;;;;;;;;5014419;28;20045;-71
2022/02/01 05:37:36;;;;;;;7.32;2.00;;;;;;;;;;5013524;28;20072;-75
2022/02/01 05:40:05;;;;;;;13.68;5.70;;;;;;;;;;5014875;28;20042;-71
2022/02/01 05:43:12;;;;;;;5.28;1.88;;;;;;;;;;5014413;28;20070;-75
2022/02/01 05:45:33;;;;;;;6.43;1.77;;;;;;;;;;5011403;28;20046;-75
2022/02/01 05:48:04;;;;;;;3.63;1.13;;;;;;;;;;5014461;28;20394;-71
2022/02/01 05:50:35;;;;;;;2.22;0.68;;;;;;;;;;5009539;28;20063;-75
2022/02/01 05:53:03;;;;;;;5.25;3.25;;;;;;;;;;4993426;28;20074;-75
2022/02/01 05:55:32;;;;;;;1.80;0.80;;;;;;;;;;4994788;28;20034;-75
2022/02/01 05:57:59;;;;;;;1.83;0.88;;;;;;;;;;4995110;28;20049;-75
2022/02/01 06:00:28;;;;;;;7.13;1.45;;;;;;;;;;4994658;28;20135;-71
2022/02/01 06:02:55;;;;;;;4.07;1.75;;;;;;;;;;4995126;28;20498;-75
2022/02/01 06:05:24;;;;;;;4.05;1.25;;;;;;;;;;4994781;28;20442;-75
2022/02/01 06:07:51;;;;;;;3.58;1.52;;;;;;;;;;4992805;28;20081;-75
2022/02/01 06:10:19;;;;;;;2.80;1.60;;;;;;;;;;4993342;28;20046;-71
2022/02/01 06:12:48;;;;;;;7.90;2.42;;;;;;;;;;4993101;28;20038;-71
2022/02/01 06:15:23;;;;;;;6.97;2.60;;;;;;;;;;4996065;28;20046;-71
2022/02/01 06:17:50;;;;;;;3.75;2.10;;;;;;;;;;5002796;28;20045;-71
2022/02/01 06:20:18;;;;;;;5.18;2.75;;;;;;;;;;5002137;28;20104;-75
2022/02/01 06:22:45;;;;;;;5.50;2.00;;;;;;;;;;5009961;28;20042;-75
2022/02/01 06:25:14;;;;;;;6.35;2.97;;;;;;;;;;5011112;28;20050;-71
2022/02/01 06:27:44;;;;;;;5.97;3.30;;;;;;;;;;5006507;28;20404;-74
2022/02/01 06:30:12;;;;;;;4.60;2.55;;;;;;;;;;4993422;28;20498;-74
2022/02/01 06:32:40;;;;;;;7.45;3.00;;;;;;;;;;4996776;28;20089;-77
2022/02/01 06:35:09;;;;;;;6.13;2.22;;;;;;;;;;4993722;28;20043;-71
2022/02/01 06:37:38;;;;;;;5.95;1.92;;;;;;;;;;4996104;28;20053;-71
2022/02/01 06:40:06;;;;;;;5.97;1.90;;;;;;;;;;4992639;28;20470;-71
2022/02/01 06:42:34;;;;;;;2.42;1.20;;;;;;;;;;4991996;28;20050;-71
2022/02/01 06:45:03;;;;;;;2.63;1.45;;;;;;;;;;4994049;28;20050;-75
2022/02/01 06:47:31;;;;;;;4.22;1.35;;;;;;;;;;4991655;28;20431;-71
2022/02/01 06:49:59;;;;;;;5.13;1.60;;;;;;;;;;4996869;28;20111;-71
2022/02/01 06:52:29;;;;;;;1.92;1.35;;;;;;;;;;5003119;28;20070;-72
2022/02/01 06:55:01;;;;;;;3.58;1.65;;;;;;;;;;4993932;28;20092;-74
2022/02/01 06:57:36;;;;;;;5.18;2.22;;;;;;;;;;5006732;28;20054;-74
2022/02/01 07:00:07;;;;;;;5.88;2.75;;;;;;;;;;4991475;28;20042;-74
2022/02/01 07:02:36;;;;;;;4.53;2.25;;;;;;;;;;4999212;28;20041;-75
2022/02/01 07:05:04;;;;;;;6.78;3.20;;;;;;;;;;4997479;28;20034;-76
2022/02/01 07:07:33;;;;;;;2.72;1.40;;;;;;;;;;5016750;28;20133;-76
2022/02/01 07:10:00;;;;;;;1.33;1.10;;;;;;;;;;5005194;28;20086;-72
2022/02/01 07:12:32;;;;;;;3.95;1.70;;;;;;;;;;5004765;28;20034;-73
2022/02/01 07:15:00;;;;;;;3.60;1.40;;;;;;;;;;5009720;28;20122;-74
2022/02/01 07:17:27;;;;;;;1.40;1.30;;;;;;;;;;5011660;28;20034;-72
2022/02/01 07:19:55;;;;;;;2.78;1.45;;;;;;;;;;5012791;28;20392;-74
2022/02/01 07:22:23;;;;;;;1.50;1.30;;;;;;;;;;5007384;28;20368;-72
2022/02/01 07:25:08;;;;;;;4.22;1.20;;;;;;;;;;4992190;28;20057;-72
2022/02/01 07:27:42;;;;;;;1.33;0.80;;;;;;;;;;4993307;28;20043;-72
2022/02/01 07:30:13;;;;;;;4.18;0.65;;;;;;;;;;4995078;28;20046;-74
2022/02/01 07:32:40;;;;;;;4.88;2.60;;;;;;;;;;5004022;28;20034;-71
2022/02/01 07:35:08;;;;;;;1.58;1.23;;;;;;;;;;5011478;28;20049;-72
2022/02/01 07:37:36;;;;;;;2.38;1.05;;;;;;;;;;5010872;28;20042;-72
2022/02/01 07:40:05;;;;;;;8.15;4.35;;;;;;;;;;5012200;28;20542;-72
2022/02/01 07:42:33;;;;;;;0.70;0.68;;;;;;;;;;5011852;28;20041;-71
2022/02/01 07:45:03;;;;;;;3.05;2.75;;;;;;;;;;5011542;28;20057;-73
2022/02/01 07:47:35;;;;;;;2.42;1.30;;;;;;;;;;5011545;28;20048;-73
2022/02/01 07:50:04;;;;;;;1.00;0.70;;;;;;;;;;5007967;28;20038;-71
2022/02/01 07:52:31;;;;;;;2.45;0.98;;;;;;;;;;5000581;28;20460;-70
2022/02/01 07:54:59;;;;;;;3.30;2.78;;;;;;;;;;5010294;28;20048;-70
2022/02/01 07:57:28;;;;;;;1.48;1.25;;;;;;;;;;5012417;28;20052;-72
2022/02/01 07:59:56;;;;;;;2.05;0.70;;;;;;;;;;5015288;28;20034;-72
2022/02/01 08:02:25;;;;;;;1.40;1.10;;;;;;;;;;5015495;28;20049;-70
2022/02/01 08:05:12;;;;;;;1.48;0.80;;;;;;;;;;5013124;28;20049;-70
2022/02/01 08:07:42;;;;;;;3.83;1.02;;;;;;;;;;4995012;28;20061;-71
2022/02/01 08:10:13;;;;;;;3.30;0.88;;;;;;;;;;4996962;28;20121;-70
2022/02/01 08:21:01;;;;;;;1.73;0.93;;;;;;;;;;5007172;28;20402;-71
2022/02/01 08:23:30;;;;;;;1.08;0.80;;;;;;;;;;4994714;28;20074;-70
2022/02/01 08:25:59;;;;;;;3.20;0.75;;;;;;;;;;4996606;28;20053;-71
2022/02/01 08:28:27;;;;;;;3.42;1.10;;;;;;;;;;5003169;28;20470;-70
2022/02/01 08:31:00;;;;;;;2.58;1.27;;;;;;;;;;5002991;28;20038;-72
2022/02/01 08:33:28;;;;;;;3.50;1.10;;;;;;;;;;4995195;28;20043;-71
2022/02/01 08:35:59;;;;;;;3.72;1.50;;;;;;;;;;4996484;28;20042;-72
2022/02/01 08:38:27;;;;;;;3.08;1.15;;;;;;;;;;4996302;28;20053;-70
2022/02/01 08:40:58;;;;;;;4.68;1.23;;;;;;;;;;4996391;28;20038;-74
2022/02/01 08:43:25;;;;;;;2.92;1.10;;;;;;;;;;4995816;28;20050;-74
2022/02/01 08:45:53;;;;;;;2.05;1.10;;;;;;;;;;4994945;28;20058;-70
2022/02/01 08:48:23;;;;;;;2.00;0.77;;;;;;;;;;4995812;28;20133;-70
2022/02/01 08:50:51;;;;;;;3.55;1.20;;;;;;;;;;5022530;28;20573;-72
2022/02/01 08:53:24;;;;;;;2.47;0.95;;;;;;;;;;5010432;28;20137;-72
2022/02/01 08:57:20;;;;;;;1.92;1.10;;;;;;;;;;5010611;28;20069;-74
2022/02/01 08:58:44;;;;;;;1.33;0.90;;;;;;;;;;5014997;28;20128;-70
2022/02/01 09:01:11;;;;;;;3.40;0.90;;;;;;;;;;5013087;28;20029;-72
2022/02/01 09:03:40;;;;;;;1.63;1.00;;;;;;;;;;5015312;28;20048;-72
2022/02/01 09:06:09;;;;;;;0.70;0.70;;;;;;;;;;5014953;28;20121;-74
2022/02/01 09:08:36;;;;;;;2.05;0.88;;;;;;;;;;5001364;28;20038;-74
2022/02/01 09:11:03;;;;;;;3.17;1.27;;;;;;;;;;5001526;28;20043;-72
2022/02/01 09:13:32;;;;;;;1.27;0.93;;;;;;;;;;5003029;28;20037;-72
2022/02/01 09:15:59;;;;;;;1.95;0.90;;;;;;;;;;5003051;28;20406;-71
2022/02/01 09:18:29;;;;;;;3.05;1.20;;;;;;;;;;5005082;28;20481;-74
2022/02/01 09:20:57;;;;;;;2.30;1.40;;;;;;;;;;5005086;28;20040;-75
2022/02/01 09:23:25;;;;;;;5.53;1.23;;;;;;;;;;5024843;28;20052;-73
2022/02/01 09:25:53;;;;;;;1.48;0.80;;;;;;;;;;5015147;28;20042;-74
2022/02/01 09:28:20;;;;;;;3.17;1.08;;;;;;;;;;5004514;28;20490;-70
2022/02/01 09:30:53;;;;;;;;;;;;;;;;;;4995304;28;20474;-71
2022/02/01 09:33:24;;;;;;;2.40;1.20;;;;;;;;;;4995781;28;20008;-72
2022/02/01 09:35:53;;;;;;;1.67;0.73;;;;;;;;;;4995295;28;20050;-74
2022/02/01 09:38:22;;;;;;;1.55;0.90;;;;;;;;;;5001921;28;20050;-70
2022/02/01 09:40:51;;;;;;;3.33;1.00;;;;;;;;;;5014733;28;20056;-71
2022/02/01 09:43:19;;;;;;;2.08;1.45;;;;;;;;;;5012793;28;20053;-72
2022/02/01 09:45:49;;;;;;;2.17;0.80;;;;;;;;;;5006523;28;20539;-72
2022/02/01 09:48:36;;;;;;;2.97;1.20;;;;;;;;;;4999623;28;20039;-72
2022/02/01 09:51:07;;;;;;;1.70;1.15;;;;;;;;;;5012478;28;20044;-70
2022/02/01 09:53:38;;;;;;;3.25;1.00;;;;;;;;;;5010560;28;20056;-73
2022/02/01 09:56:06;;;;;;;4.35;1.05;;;;;;;;;;5012653;28;20084;-70
2022/02/01 09:58:36;;;;;;;3.00;1.48;;;;;;;;;;5012936;28;20048;-72
2022/02/01 10:01:19;;;;;;;2.78;1.10;;;;;;;;;;5014448;28;20117;-72
2022/02/01 10:04:00;;;;;;;3.35;1.00;;;;;;;;;;5014189;28;20049;-72
2022/02/01 10:06:41;;;;;;;2.05;1.00;;;;;;;;;;5111614;23;20056;-69
2022/02/01 10:09:29;;;;;;;1.00;0.90;;;;;;;;;;5053163;28;20511;-69
2022/02/01 10:11:57;;;;;;;0.60;0.55;;;;;;;;;;5053927;28;20041;-66
2022/02/01 10:14:28;;;;;;;3.08;1.10;;;;;;;;;;5053323;28;20045;-67
2022/02/01 10:16:59;;;;;;;3.88;0.80;;;;;;;;;;5054124;28;20406;-67
2022/02/01 10:19:27;;;;;;;5.80;1.10;;;;;;;;;;5041860;28;20069;-67
2022/02/01 10:21:57;;;;;;;3.95;1.35;;;;;;;;;;5047996;28;20040;-66
2022/02/01 10:24:35;;;;;;;3.13;1.55;;;;;;;;;;5053792;28;20059;-66
2022/02/01 10:27:10;;;;;;;5.25;1.08;;;;;;;;;;5053113;28;20045;-66
2022/02/01 10:29:40;;;;;;;0.82;0.70;;;;;;;;;;5042510;28;20037;-66
2022/02/01 10:32:24;;;;;;;2.05;0.70;;;;;;;;;;5039892;28;20041;-67
2022/02/01 10:34:52;;;;;;;2.17;1.20;;;;;;;;;;5052881;28;20037;-67
2022/02/01 10:37:40;;;;;;;3.75;1.13;;;;;;;;;;5033869;28;20049;-67
2022/02/01 10:40:09;;;;;;;7.10;1.27;;;;;;;;;;5002532;28;20179;-68
2022/02/01 10:42:38;;;;;;;0.95;0.77;;;;;;;;;;5021658;28;20064;-67
2022/02/01 10:45:06;;;;;;;4.15;1.25;;;;;;;;;;5052708;28;20535;-68
2022/02/01 10:47:37;;;;;;;1.77;0.80;;;;;;;;;;5052052;28;20120;-68
2022/02/01 10:50:07;;;;;;;1.38;0.47;;;;;;;;;;5052322;28;20507;-68
2022/02/01 10:52:36;;;;;;;4.63;0.90;;;;;;;;;;5052717;28;20045;-67
2022/02/01 10:55:04;;;;;;;2.70;0.60;;;;;;;;;;5052671;28;20404;-67
2022/02/01 10:57:32;;;;;;;3.17;0.68;;;;;;;;;;5034868;28;20044;-68
2022/02/01 10:59:59;;;;;;;0.82;0.73;;;;;;;;;;5035205;28;20059;-68
2022/02/01 11:02:29;;;;;;;1.77;0.90;;;;;;;;;;5048128;28;20493;-68
2022/02/01 11:04:59;;;;;;;4.40;0.80;;;;;;;;;;5013122;28;20050;-68
2022/02/01 11:07:26;;;;;;;1.40;1.00;;;;;;;;;;4995339;28;20058;-69
2022/02/01 11:09:54;;;;;;;1.85;1.00;;;;;;;;;;5012958;28;20076;-68
2022/02/01 11:12:23;;;;;;;3.28;0.90;;;;;;;;;;5013084;28;20092;-68
2022/02/01 11:14:51;;;;;;;2.80;1.17;;;;;;;;;;5012971;28;20070;-67
2022/02/01 11:17:21;;;;;;;1.98;1.10;;;;;;;;;;5012873;28;20038;-68
2022/02/01 11:19:51;;;;;;;1.38;1.20;;;;;;;;;;5012618;28;20041;-69
2022/02/01 11:22:42;;;;;;;1.90;1.17;;;;;;;;;;5044049;28;20116;-68
2022/02/01 11:25:21;;;;;;;1.83;1.40;;;;;;;;;;5034024;28;20045;-68
2022/02/01 11:28:20;;;;;;;5.20;1.35;;;;;;;;;;5046647;28;20048;-69
2022/02/01 11:30:51;;;;;;;3.78;1.55;;;;;;;;;;5051641;28;20111;-68
2022/02/01 11:33:20;;;;;;;4.45;1.75;;;;;;;;;;5052149;28;20124;-68
2022/02/01 11:35:58;;;;;;;0.90;0.90;;;;;;;;;;5034320;28;20049;-67
2022/02/01 11:38:26;;;;;;;2.13;0.82;;;;;;;;;;5052165;28;20040;-68
2022/02/01 11:41:06;;;;;;;1.88;0.60;;;;;;;;;;5052114;28;20041;-67
2022/02/01 11:43:40;;;;;;;3.90;1.27;;;;;;;;;;5034020;28;20502;-68
2022/02/01 11:46:09;;;;;;;1.90;1.05;;;;;;;;;;5052533;28;20132;-69
2022/02/01 11:48:38;;;;;;;5.03;1.25;;;;;;;;;;5034691;28;20048;-67
2022/02/01 11:51:08;;;;;;;1.67;0.80;;;;;;;;;;5052689;28;20094;-69
2022/02/01 11:53:35;;;;;;;3.30;0.90;;;;;;;;;;5052288;28;20571;-68
2022/02/01 11:56:05;;;;;;;1.55;0.90;;;;;;;;;;5033918;28;20045;-68
2022/02/01 11:58:36;;;;;;;4.57;1.25;;;;;;;;;;5034062;28;20041;-68
2022/02/01 12:01:07;;;;;;;2.13;0.98;;;;;;;;;;5051877;28;20064;-68
2022/02/01 12:03:38;;;;;;;2.65;1.63;;;;;;;;;;5051789;28;20041;-68
2022/02/01 12:06:10;;;;;;;3.83;1.95;;;;;;;;;;5045719;28;20052;-68
2022/02/01 12:08:43;;;;;;;0.60;0.60;;;;;;;;;;5032278;28;20033;-68
2022/02/01 12:11:13;;;;;;;4.82;1.33;;;;;;;;;;5014243;28;20140;-68
2022/02/01 12:13:40;;;;;;;5.10;2.35;;;;;;;;;;5033930;28;20120;-68
2022/02/01 12:16:10;;;;;;;3.25;0.88;;;;;;;;;;5048988;28;20041;-68
2022/02/01 12:18:47;;;;;;;1.67;0.93;;;;;;;;;;5051682;28;20037;-68
2022/02/01 12:21:15;;;;;;;0.57;0.57;;;;;;;;;;5051978;28;20041;-67
2022/02/01 12:23:47;;;;;;;1.30;0.98;;;;;;;;;;5051037;28;20058;-69
2022/02/01 12:26:19;;;;;;;1.77;0.98;;;;;;;;;;5051770;28;20041;-69
2022/02/01 12:28:47;;;;;;;1.20;1.02;;;;;;;;;;5051800;28;20072;-68
2022/02/01 12:31:15;;;;;;;1.48;0.95;;;;;;;;;;5033715;28;20041;-68
2022/02/01 12:33:51;;;;;;;1.75;1.65;;;;;;;;;;5051394;28;20033;-68
2022/02/01 12:36:25;;;;;;;1.98;0.98;;;;;;;;;;5051957;28;20125;-67
2022/02/01 12:39:23;;;;;;;1.20;1.10;;;;;;;;;;5051781;28;20084;-68
2022/02/01 12:46:54;;;;;;;1.65;1.00;;;;;;;;;;5052387;28;20399;-69
2022/02/01 12:49:49;;;;;;;1.70;0.93;;;;;;;;;;5055353;28;20033;-67
2022/02/01 12:52:21;;;;;;;3.63;1.20;;;;;;;;;;5055847;28;20041;-68
2022/02/01 12:55:08;;;;;;;1.00;0.90;;;;;;;;;;5055508;28;20400;-67
2022/02/01 12:57:56;;;;;;;3.67;2.17;;;;;;;;;;5055037;28;20037;-68
2022/02/01 13:00:25;;;;;;;1.33;0.82;;;;;;;;;;5055338;28;20096;-69
2022/02/01 13:03:03;;;;;;;1.13;0.70;;;;;;;;;;5052076;28;20125;-68
2022/02/01 13:05:31;;;;;;;2.53;1.90;;;;;;;;;;5043586;28;20052;-68
2022/02/01 13:21:07;;;;;;;1.55;1.15;;;;;;;;;;5028363;28;20120;-67
2022/02/01 13:23:37;;;;;;;1.90;1.17;;;;;;;;;;5020192;28;20073;-67
2022/02/01 13:26:15;;;;;;;5.15;1.45;;;;;;;;;;5020065;28;20046;-68
2022/02/01 13:29:02;;;;;;;1.73;0.82;;;;;;;;;;5019385;28;20092;-68
2022/02/01 13:31:34;;;;;;;1.88;0.90;;;;;;;;;;5020581;28;20353;-68
2022/02/01 13:34:04;;;;;;;0.95;0.60;;;;;;;;;;5013039;28;20378;-68
2022/02/01 13:36:48;;;;;;;1.65;0.85;;;;;;;;;;5040369;28;20057;-68
2022/02/01 13:39:30;;;;;;;1.00;0.85;;;;;;;;;;5041835;28;20104;-68
2022/02/01 13:42:05;;;;;;;4.28;2.50;;;;;;;;;;5020754;28;20056;-67
2022/02/01 13:44:53;;;;;;;2.88;1.00;;;;;;;;;;5016643;28;20155;-69
2022/02/01 13:47:31;;;;;;;1.50;1.38;;;;;;;;;;4997627;28;20378;-67
2022/02/01 13:49:59;;;;;;;0.80;0.65;;;;;;;;;;5000910;28;20485;-68
2022/02/01 13:52:27;;;;;;;1.17;0.90;;;;;;;;;;5014730;28;20042;-67
2022/02/01 13:54:55;;;;;;;0.90;0.60;;;;;;;;;;5010065;28;20033;-66
2022/02/01 13:57:23;;;;;;;0.40;0.40;;;;;;;;;;5014443;28;20441;-68
2022/02/01 13:59:51;;;;;;;2.15;0.57;;;;;;;;;;5018634;28;20056;-66
2022/02/01 14:02:29;;;;;;;0.98;0.60;;;;;;;;;;5016933;28;20098;-68
2022/02/01 14:05:16;;;;;;;0.50;0.50;;;;;;;;;;5015000;28;20052;-69
2022/02/01 14:10:42;;;;;;;5.00;0.90;;;;;;;;;;5019327;28;20041;-69
2022/02/01 14:14:02;;;;;;;3.60;0.50;;;;;;;;;;5001113;28;20450;-68
2022/02/01 14:16:29;;;;;;;;;;;;;;;;;;5011500;28;20057;-67
2022/02/01 14:35:39;;;;;;;1.45;0.82;;;;;;;;;;4954013;28;20055;-67
2022/02/01 14:46:30;;;;;;;1.83;1.15;;;;;;;;;;4952486;28;20073;-68
2022/02/01 14:48:58;;;;;;;5.63;1.23;;;;;;;;;;4960882;28;20507;-68
2022/02/01 14:51:26;;;;;;;2.15;1.25;;;;;;;;;;4995495;28;20040;-67
2022/02/01 14:53:53;;;;;;;2.10;0.40;;;;;;;;;;5017309;28;20113;-68
2022/02/01 14:56:25;;;;;;;1.65;0.80;;;;;;;;;;5013014;28;20096;-69
2022/02/01 15:06:17;;;;;;;1.75;0.50;;;;;;;;;;4933381;29;20047;-68
2022/02/01 15:11:20;;;;;;;1.17;1.02;;;;;;;;;;4983996;28;20059;-69
2022/02/01 15:13:28;;;;;;;7.65;1.10;;;;;;;;;;4993311;28;20073;-68
2022/02/01 15:16:19;;;;;;;2.50;0.80;;;;;;;;;;4993170;28;20038;-67
2022/02/01 15:18:47;;;;;;;3.13;0.60;;;;;;;;;;4993227;28;20113;-69
2022/02/01 15:21:14;;;;;;;3.53;0.75;;;;;;;;;;4993063;28;20494;-69
2022/02/01 15:23:42;;;;;;;3.35;0.70;;;;;;;;;;4995870;28;20050;-69
2022/02/01 15:26:10;;;;;;;2.85;0.80;;;;;;;;;;4993359;28;20047;-69
2022/02/01 15:28:37;;;;;;;1.95;0.70;;;;;;;;;;4992834;28;20034;-70
2022/02/01 15:31:23;;;;;;;2.10;0.68;;;;;;;;;;4992774;28;20560;-67
2022/02/01 15:33:50;;;;;;;0.60;0.50;;;;;;;;;;4995955;28;20121;-66
2022/02/01 15:36:19;;;;;;;2.95;0.68;;;;;;;;;;4992928;28;20034;-68
2022/02/01 15:46:01;;;;;;;4.68;1.95;;;;;;;;;;4993153;28;20035;-67
2022/02/01 15:58:12;;;;;;;4.68;1.20;;;;;;;;;;5012668;28;20111;-68
2022/02/01 16:00:40;;;;;;;2.33;0.80;;;;;;;;;;5016162;28;20042;-66
2022/02/01 16:03:17;;;;;;;1.60;1.27;;;;;;;;;;5018796;28;20092;-66
2022/02/01 16:05:47;;;;;;;1.27;0.80;;;;;;;;;;5020154;28;20046;-68
2022/02/01 16:08:39;;;;;;;2.08;0.90;;;;;;;;;;5041095;28;20041;-66
2022/02/01 16:11:06;;;;;;;1.15;1.05;;;;;;;;;;5037923;28;20033;-67
2022/02/01 16:13:40;;;;;;;6.10;1.23;;;;;;;;;;5039465;28;20037;-67
2022/02/01 16:16:12;;;;;;;3.75;1.08;;;;;;;;;;5039447;28;20385;-66
2022/02/01 16:18:44;;;;;;;1.13;1.02;;;;;;;;;;5049945;28;20036;-67
2022/02/01 16:21:12;;;;;;;6.38;1.02;;;;;;;;;;5041021;28;20053;-68
2022/02/01 16:23:53;;;;;;;3.38;1.23;;;;;;;;;;5042484;28;20037;-66
2022/02/01 16:26:22;;;;;;;3.90;2.05;;;;;;;;;;5035663;28;20048;-67
2022/02/01 16:28:49;;;;;;;2.05;1.02;;;;;;;;;;5033739;28;20129;-69
2022/02/01 16:31:17;;;;;;;6.47;1.30;;;;;;;;;;5039967;28;20063;-66
2022/02/01 16:33:45;;;;;;;6.18;1.85;;;;;;;;;;5045266;28;20038;-65
2022/02/01 16:36:33;;;;;;;7.93;0.90;;;;;;;;;;5028275;28;20116;-67
2022/02/01 16:39:03;;;;;;;5.95;1.48;;;;;;;;;;5030765;28;20045;-68
2022/02/01 16:41:31;;;;;;;8.38;1.08;;;;;;;;;;5042825;28;20525;-69
2022/02/01 16:44:02;;;;;;;3.55;1.10;;;;;;;;;;5026029;28;20037;-69
2022/02/01 16:46:37;;;;;;;5.20;1.15;;;;;;;;;;5022504;28;20050;-67
2022/02/01 16:49:06;;;;;;;2.75;0.90;;;;;;;;;;5022885;28;20042;-68
2022/02/01 16:51:35;;;;;;;4.05;0.73;;;;;;;;;;5029139;28;20045;-67
2022/02/01 16:54:08;;;;;;;2.97;1.05;;;;;;;;;;5033557;28;20053;-68
2022/02/01 16:56:49;;;;;;;1.15;0.98;;;;;;;;;;5035903;28;20480;-68
2022/02/01 16:59:24;;;;;;;5.30;1.30;;;;;;;;;;5024916;28;20114;-71
2022/02/01 17:01:53;;;;;;;9.63;1.40;;;;;;;;;;5017135;28;20060;-72
2022/02/01 17:04:21;;;;;;;9.10;1.15;;;;;;;;;;5034711;28;20041;-68
2022/02/01 17:06:49;;;;;;;4.03;1.65;;;;;;;;;;5021457;28;20049;-71
2022/02/01 17:09:19;;;;;;;7.57;1.60;;;;;;;;;;5037983;28;20052;-68
2022/02/01 17:22:07;;;;;;;5.40;1.88;;;;;;;;;;5035026;28;20119;-71
2022/02/01 17:24:35;;;;;;;7.72;2.78;;;;;;;;;;5034946;28;20045;-71
2022/02/01 17:27:10;;;;;;;9.43;3.03;;;;;;;;;;5025881;28;20050;-69
2022/02/01 17:29:40;;;;;;;11.93;4.20;;;;;;;;;;5028909;28;20053;-71
2022/02/01 17:32:07;;;;;;;16.15;5.07;;;;;;;;;;5018205;28;20042;-70
2022/02/01 17:34:34;;;;;;;13.10;5.60;;;;;;;;;;5041167;28;20033;-69
2022/02/01 17:37:05;;;;;;;15.75;5.97;;;;;;;;;;5043576;28;20037;-71
2022/02/01 17:39:33;;;;;;;19.65;6.20;;;;;;;;;;5042550;28;20041;-71
2022/02/01 17:42:02;;;;;;;47.45;22.50;;;;;;;;;;5041545;28;20050;-70
2022/02/01 17:44:33;;;;;;;18.77;9.90;;;;;;;;;;5041126;28;20049;-71
2022/02/01 17:47:00;;;;;;;13.05;6.45;;;;;;;;;;5042944;28;20037;-68
2022/02/01 17:49:31;;;;;;;10.00;2.60;;;;;;;;;;5027031;28;20037;-71